sensor_id;sensor_type;location;lat;lon;timestamp;P1;durP1;ratioP1;P2;durP2;ratioP2
20454;SDS011;10386;54.314;10.022;2022-07-29T00:02:24;4.30;;;2.13;;
20454;SDS011;10386;54.314;10.022;2022-07-29T00:04:52;4.00;;;2.20;;
20454;SDS011;10386;54.314;10.022;2022-07-29T00:07:19;3.53;;;2.20;;
20454;SDS011;10386;54.314;10.022;2022-07-29T00:09:46;2.50;;;2.30;;
20454;SDS011;10386;54.314;10.022;2022-07-29T00:12:21;3.03;;;2.10;;
20454;SDS011;10386;54.314;10.022;2022-07-29T00:14:55;2.70;;;2.23;;
20454;SDS011;10386;54.314;10.022;2022-07-29T00:17:25;2.80;;;2.10;;
20454;SDS011;10386;54.314;10.022;2022-07-29T00:19:52;2.97;;;2.23;;
20454;SDS011;10386;54.314;10.022;2022-07-29T00:22:19;5.23;;;2.33;;
20454;SDS011;10386;54.314;10.022;2022-07-29T00:24:47;2.40;;;2.20;;
20454;SDS011;10386;54.314;10.022;2022-07-29T00:27:15;3.00;;;2.30;;
20454;SDS011;10386;54.314;10.022;2022-07-29T00:29:43;5.10;;;2.37;;
20454;SDS011;10386;54.314;10.022;2022-07-29T00:32:10;2.20;;;2.00;;
20454;SDS011;10386;54.314;10.022;2022-07-29T00:34:36;4.60;;;1.93;;
20454;SDS011;10386;54.314;10.022;2022-07-29T00:37:21;2.03;;;1.90;;
20454;SDS011;10386;54.314;10.022;2022-07-29T00:39:48;5.43;;;2.20;;
20454;SDS011;10386;54.314;10.022;2022-07-29T00:42:15;2.70;;;2.20;;
20454;SDS011;10386;54.314;10.022;2022-07-29T00:44:43;2.10;;;1.90;;
20454;SDS011;10386;54.314;10.022;2022-07-29T00:47:10;2.50;;;2.33;;
20454;SDS011;10386;54.314;10.022;2022-07-29T00:49:39;3.10;;;2.20;;
20454;SDS011;10386;54.314;10.022;2022-07-29T00:52:08;3.93;;;2.67;;
20454;SDS011;10386;54.314;10.022;2022-07-29T00:54:37;4.40;;;2.20;;
20454;SDS011;10386;54.314;10.022;2022-07-29T00:57:10;3.57;;;2.20;;
20454;SDS011;10386;54.314;10.022;2022-07-29T00:59:37;2.13;;;1.87;;
20454;SDS011;10386;54.314;10.022;2022-07-29T01:02:04;3.43;;;2.30;;
20454;SDS011;10386;54.314;10.022;2022-07-29T01:04:31;2.50;;;2.00;;
20454;SDS011;10386;54.314;10.022;2022-07-29T01:06:58;4.73;;;2.27;;
20454;SDS011;10386;54.314;10.022;2022-07-29T01:09:27;2.57;;;2.10;;
20454;SDS011;10386;54.314;10.022;2022-07-29T01:12:13;4.33;;;2.40;;
20454;SDS011;10386;54.314;10.022;2022-07-29T01:14:43;3.93;;;2.20;;
20454;SDS011;10386;54.314;10.022;2022-07-29T01:17:17;3.50;;;2.00;;
20454;SDS011;10386;54.314;10.022;2022-07-29T01:20:03;2.80;;;2.50;;
20454;SDS011;10386;54.314;10.022;2022-07-29T01:25:52;6.17;;;2.50;;
20454;SDS011;10386;54.314;10.022;2022-07-29T01:35:02;5.03;;;2.33;;
20454;SDS011;10386;54.314;10.022;2022-07-29T01:37:34;5.40;;;2.47;;
20454;SDS011;10386;54.314;10.022;2022-07-29T01:40:14;2.60;;;2.40;;
20454;SDS011;10386;54.314;10.022;2022-07-29T01:42:54;2.97;;;2.70;;
20454;SDS011;10386;54.314;10.022;2022-07-29T01:45:29;3.33;;;2.83;;
20454;SDS011;10386;54.314;10.022;2022-07-29T01:48:52;2.80;;;2.10;;
20454;SDS011;10386;54.314;10.022;2022-07-29T01:51:04;2.47;;;2.27;;
20454;SDS011;10386;54.314;10.022;2022-07-29T01:53:35;2.77;;;2.57;;
20454;SDS011;10386;54.314;10.022;2022-07-29T01:56:09;2.60;;;2.10;;
20454;SDS011;10386;54.314;10.022;2022-07-29T01:58:38;3.23;;;2.57;;
20454;SDS011;10386;54.314;10.022;2022-07-29T02:01:08;3.50;;;2.50;;
20454;SDS011;10386;54.314;10.022;2022-07-29T02:03:37;4.37;;;2.30;;
20454;SDS011;10386;54.314;10.022;2022-07-29T02:06:05;3.97;;;3.00;;
20454;SDS011;10386;54.314;10.022;2022-07-29T02:08:35;7.50;;;2.83;;
20454;SDS011;10386;54.314;10.022;2022-07-29T02:11:04;3.87;;;2.30;;
20454;SDS011;10386;54.314;10.022;2022-07-29T02:13:34;5.33;;;2.33;;
20454;SDS011;10386;54.314;10.022;2022-07-29T02:16:04;3.50;;;2.73;;
20454;SDS011;10386;54.314;10.022;2022-07-29T02:18:33;5.30;;;2.60;;
20454;SDS011;10386;54.314;10.022;2022-07-29T02:21:03;2.57;;;2.37;;
20454;SDS011;10386;54.314;10.022;2022-07-29T02:23:40;5.70;;;2.80;;
20454;SDS011;10386;54.314;10.022;2022-07-29T02:26:17;3.60;;;2.47;;
20454;SDS011;10386;54.314;10.022;2022-07-29T02:28:45;5.40;;;2.67;;
20454;SDS011;10386;54.314;10.022;2022-07-29T02:31:12;3.47;;;2.60;;
20454;SDS011;10386;54.314;10.022;2022-07-29T02:33:41;3.13;;;2.50;;
20454;SDS011;10386;54.314;10.022;2022-07-29T02:36:10;3.33;;;2.30;;
20454;SDS011;10386;54.314;10.022;2022-07-29T02:38:37;4.37;;;2.60;;
20454;SDS011;10386;54.314;10.022;2022-07-29T02:41:29;6.10;;;2.70;;
20454;SDS011;10386;54.314;10.022;2022-07-29T02:44:03;3.50;;;2.37;;
20454;SDS011;10386;54.314;10.022;2022-07-29T02:46:35;4.10;;;2.53;;
20454;SDS011;10386;54.314;10.022;2022-07-29T02:49:07;3.80;;;2.23;;
20454;SDS011;10386;54.314;10.022;2022-07-29T02:51:43;3.93;;;2.27;;
20454;SDS011;10386;54.314;10.022;2022-07-29T02:57:19;3.43;;;2.30;;
20454;SDS011;10386;54.314;10.022;2022-07-29T02:59:49;3.83;;;2.63;;
20454;SDS011;10386;54.314;10.022;2022-07-29T03:02:19;4.63;;;2.50;;
20454;SDS011;10386;54.314;10.022;2022-07-29T03:04:47;2.73;;;2.37;;
20454;SDS011;10386;54.314;10.022;2022-07-29T03:07:18;2.63;;;2.27;;
20454;SDS011;10386;54.314;10.022;2022-07-29T03:09:46;3.00;;;2.63;;
20454;SDS011;10386;54.314;10.022;2022-07-29T03:12:14;3.73;;;2.73;;
20454;SDS011;10386;54.314;10.022;2022-07-29T03:14:42;3.53;;;2.40;;
20454;SDS011;10386;54.314;10.022;2022-07-29T03:17:10;2.50;;;2.30;;
20454;SDS011;10386;54.314;10.022;2022-07-29T03:19:37;2.70;;;2.50;;
20454;SDS011;10386;54.314;10.022;2022-07-29T03:22:05;2.70;;;2.50;;
20454;SDS011;10386;54.314;10.022;2022-07-29T03:24:33;3.87;;;2.83;;
20454;SDS011;10386;54.314;10.022;2022-07-29T03:27:02;4.50;;;2.70;;
20454;SDS011;10386;54.314;10.022;2022-07-29T03:29:30;2.93;;;2.57;;
20454;SDS011;10386;54.314;10.022;2022-07-29T03:31:59;7.10;;;2.90;;
20454;SDS011;10386;54.314;10.022;2022-07-29T03:34:33;3.20;;;3.00;;
20454;SDS011;10386;54.314;10.022;2022-07-29T03:37:01;2.50;;;2.30;;
20454;SDS011;10386;54.314;10.022;2022-07-29T03:39:29;3.83;;;2.70;;
20454;SDS011;10386;54.314;10.022;2022-07-29T03:41:59;3.93;;;2.13;;
20454;SDS011;10386;54.314;10.022;2022-07-29T03:44:27;4.87;;;2.50;;
20454;SDS011;10386;54.314;10.022;2022-07-29T03:46:55;2.87;;;2.50;;
20454;SDS011;10386;54.314;10.022;2022-07-29T03:49:24;3.50;;;2.50;;
20454;SDS011;10386;54.314;10.022;2022-07-29T03:51:53;4.43;;;2.47;;
20454;SDS011;10386;54.314;10.022;2022-07-29T03:54:20;5.17;;;2.30;;
20454;SDS011;10386;54.314;10.022;2022-07-29T03:56:47;5.30;;;2.83;;
20454;SDS011;10386;54.314;10.022;2022-07-29T03:59:18;3.63;;;2.27;;
20454;SDS011;10386;54.314;10.022;2022-07-29T04:01:47;3.83;;;2.57;;
20454;SDS011;10386;54.314;10.022;2022-07-29T04:04:14;3.70;;;2.63;;
20454;SDS011;10386;54.314;10.022;2022-07-29T04:06:43;3.97;;;2.30;;
20454;SDS011;10386;54.314;10.022;2022-07-29T04:09:14;3.90;;;2.90;;
20454;SDS011;10386;54.314;10.022;2022-07-29T04:11:41;3.20;;;2.40;;
20454;SDS011;10386;54.314;10.022;2022-07-29T04:14:28;2.93;;;2.57;;
20454;SDS011;10386;54.314;10.022;2022-07-29T04:16:55;2.70;;;2.50;;
20454;SDS011;10386;54.314;10.022;2022-07-29T04:19:22;4.83;;;2.60;;
20454;SDS011;10386;54.314;10.022;2022-07-29T04:21:49;3.10;;;2.80;;
20454;SDS011;10386;54.314;10.022;2022-07-29T04:24:16;4.00;;;3.00;;
20454;SDS011;10386;54.314;10.022;2022-07-29T04:26:45;3.37;;;2.70;;
20454;SDS011;10386;54.314;10.022;2022-07-29T04:29:12;3.03;;;2.70;;
20454;SDS011;10386;54.314;10.022;2022-07-29T04:31:41;3.33;;;3.03;;
20454;SDS011;10386;54.314;10.022;2022-07-29T04:34:08;3.37;;;3.07;;
20454;SDS011;10386;54.314;10.022;2022-07-29T04:36:35;3.50;;;3.20;;
20454;SDS011;10386;54.314;10.022;2022-07-29T04:39:02;4.87;;;4.37;;
20454;SDS011;10386;54.314;10.022;2022-07-29T04:41:30;7.60;;;4.47;;
20454;SDS011;10386;54.314;10.022;2022-07-29T04:43:59;5.33;;;4.83;;
20454;SDS011;10386;54.314;10.022;2022-07-29T04:46:27;7.43;;;6.47;;
20454;SDS011;10386;54.314;10.022;2022-07-29T04:48:54;7.17;;;6.00;;
20454;SDS011;10386;54.314;10.022;2022-07-29T04:51:21;6.03;;;5.30;;
20454;SDS011;10386;54.314;10.022;2022-07-29T04:53:48;6.43;;;4.00;;
20454;SDS011;10386;54.314;10.022;2022-07-29T04:56:14;5.63;;;4.53;;
20454;SDS011;10386;54.314;10.022;2022-07-29T04:58:41;4.33;;;3.93;;
20454;SDS011;10386;54.314;10.022;2022-07-29T05:01:08;4.50;;;4.10;;
20454;SDS011;10386;54.314;10.022;2022-07-29T05:03:35;5.07;;;3.97;;
20454;SDS011;10386;54.314;10.022;2022-07-29T05:06:02;4.10;;;3.70;;
20454;SDS011;10386;54.314;10.022;2022-07-29T05:08:29;5.23;;;4.03;;
20454;SDS011;10386;54.314;10.022;2022-07-29T05:10:56;6.27;;;3.63;;
20454;SDS011;10386;54.314;10.022;2022-07-29T05:13:22;5.90;;;3.30;;
20454;SDS011;10386;54.314;10.022;2022-07-29T05:15:50;4.73;;;3.40;;
20454;SDS011;10386;54.314;10.022;2022-07-29T05:18:17;6.50;;;3.83;;
20454;SDS011;10386;54.314;10.022;2022-07-29T05:20:43;5.67;;;4.10;;
20454;SDS011;10386;54.314;10.022;2022-07-29T05:23:10;8.00;;;3.40;;
20454;SDS011;10386;54.314;10.022;2022-07-29T05:25:39;3.87;;;3.20;;
20454;SDS011;10386;54.314;10.022;2022-07-29T05:28:10;9.40;;;3.90;;
20454;SDS011;10386;54.314;10.022;2022-07-29T05:30:37;4.60;;;3.23;;
20454;SDS011;10386;54.314;10.022;2022-07-29T05:33:04;5.53;;;3.37;;
20454;SDS011;10386;54.314;10.022;2022-07-29T05:35:31;4.07;;;3.30;;
20454;SDS011;10386;54.314;10.022;2022-07-29T05:37:58;4.87;;;3.47;;
20454;SDS011;10386;54.314;10.022;2022-07-29T05:40:24;4.30;;;3.00;;
20454;SDS011;10386;54.314;10.022;2022-07-29T05:42:51;8.40;;;3.40;;
20454;SDS011;10386;54.314;10.022;2022-07-29T05:45:18;5.33;;;3.17;;
20454;SDS011;10386;54.314;10.022;2022-07-29T05:47:45;6.17;;;3.23;;
20454;SDS011;10386;54.314;10.022;2022-07-29T05:50:12;7.13;;;3.40;;
20454;SDS011;10386;54.314;10.022;2022-07-29T05:52:39;4.37;;;3.03;;
20454;SDS011;10386;54.314;10.022;2022-07-29T05:55:06;6.90;;;3.50;;
20454;SDS011;10386;54.314;10.022;2022-07-29T05:57:33;3.53;;;2.97;;
20454;SDS011;10386;54.314;10.022;2022-07-29T06:00:00;5.37;;;3.30;;
20454;SDS011;10386;54.314;10.022;2022-07-29T06:02:27;6.47;;;3.07;;
20454;SDS011;10386;54.314;10.022;2022-07-29T06:04:54;3.77;;;2.87;;
20454;SDS011;10386;54.314;10.022;2022-07-29T06:07:21;5.07;;;2.60;;
20454;SDS011;10386;54.314;10.022;2022-07-29T06:09:48;7.30;;;2.60;;
20454;SDS011;10386;54.314;10.022;2022-07-29T06:12:15;8.63;;;2.70;;
20454;SDS011;10386;54.314;10.022;2022-07-29T06:14:42;3.47;;;2.90;;
20454;SDS011;10386;54.314;10.022;2022-07-29T06:17:08;8.03;;;3.00;;
20454;SDS011;10386;54.314;10.022;2022-07-29T06:19:37;7.63;;;3.23;;
20454;SDS011;10386;54.314;10.022;2022-07-29T06:22:04;3.30;;;2.63;;
20454;SDS011;10386;54.314;10.022;2022-07-29T06:24:31;7.83;;;3.33;;
20454;SDS011;10386;54.314;10.022;2022-07-29T06:26:58;6.17;;;2.90;;
20454;SDS011;10386;54.314;10.022;2022-07-29T06:29:25;16.47;;;3.50;;
20454;SDS011;10386;54.314;10.022;2022-07-29T06:31:52;10.63;;;2.90;;
20454;SDS011;10386;54.314;10.022;2022-07-29T06:34:19;7.00;;;3.40;;
20454;SDS011;10386;54.314;10.022;2022-07-29T06:36:46;8.07;;;2.70;;
20454;SDS011;10386;54.314;10.022;2022-07-29T06:39:13;9.10;;;2.80;;
20454;SDS011;10386;54.314;10.022;2022-07-29T06:41:41;8.47;;;2.67;;
20454;SDS011;10386;54.314;10.022;2022-07-29T06:44:10;5.00;;;2.50;;
20454;SDS011;10386;54.314;10.022;2022-07-29T06:46:38;4.68;;;2.63;;
20454;SDS011;10386;54.314;10.022;2022-07-29T06:49:05;6.80;;;2.40;;
20454;SDS011;10386;54.314;10.022;2022-07-29T06:51:31;6.28;;;2.75;;
20454;SDS011;10386;54.314;10.022;2022-07-29T06:53:59;3.75;;;2.25;;
20454;SDS011;10386;54.314;10.022;2022-07-29T06:56:29;5.55;;;2.40;;
20454;SDS011;10386;54.314;10.022;2022-07-29T06:59:05;7.28;;;2.50;;
20454;SDS011;10386;54.314;10.022;2022-07-29T07:01:38;6.68;;;2.08;;
20454;SDS011;10386;54.314;10.022;2022-07-29T07:04:06;4.68;;;2.53;;
20454;SDS011;10386;54.314;10.022;2022-07-29T07:06:35;4.40;;;2.38;;
20454;SDS011;10386;54.314;10.022;2022-07-29T07:09:02;6.88;;;2.40;;
20454;SDS011;10386;54.314;10.022;2022-07-29T07:11:30;5.50;;;2.50;;
20454;SDS011;10386;54.314;10.022;2022-07-29T07:13:57;5.93;;;2.20;;
20454;SDS011;10386;54.314;10.022;2022-07-29T07:16:29;3.42;;;2.10;;
20454;SDS011;10386;54.314;10.022;2022-07-29T07:18:57;7.22;;;2.25;;
20454;SDS011;10386;54.314;10.022;2022-07-29T07:21:24;3.90;;;2.30;;
20454;SDS011;10386;54.314;10.022;2022-07-29T07:23:50;3.72;;;2.00;;
20454;SDS011;10386;54.314;10.022;2022-07-29T07:26:17;6.38;;;2.42;;
20454;SDS011;10386;54.314;10.022;2022-07-29T07:28:44;4.90;;;2.17;;
20454;SDS011;10386;54.314;10.022;2022-07-29T07:31:11;4.70;;;2.10;;
20454;SDS011;10386;54.314;10.022;2022-07-29T07:33:38;3.72;;;2.40;;
20454;SDS011;10386;54.314;10.022;2022-07-29T07:36:05;4.88;;;2.10;;
20454;SDS011;10386;54.314;10.022;2022-07-29T07:38:31;5.70;;;2.03;;
20454;SDS011;10386;54.314;10.022;2022-07-29T07:40:58;4.20;;;2.20;;
20454;SDS011;10386;54.314;10.022;2022-07-29T07:43:25;5.70;;;2.33;;
20454;SDS011;10386;54.314;10.022;2022-07-29T07:45:52;4.57;;;2.40;;
20454;SDS011;10386;54.314;10.022;2022-07-29T07:48:19;3.58;;;2.40;;
20454;SDS011;10386;54.314;10.022;2022-07-29T07:50:46;7.80;;;2.15;;
20454;SDS011;10386;54.314;10.022;2022-07-29T07:53:15;3.97;;;2.30;;
20454;SDS011;10386;54.314;10.022;2022-07-29T07:55:42;4.55;;;2.60;;
20454;SDS011;10386;54.314;10.022;2022-07-29T07:58:29;8.15;;;2.67;;
20454;SDS011;10386;54.314;10.022;2022-07-29T08:00:56;7.45;;;2.38;;
20454;SDS011;10386;54.314;10.022;2022-07-29T08:03:23;6.45;;;1.88;;
20454;SDS011;10386;54.314;10.022;2022-07-29T08:05:50;11.57;;;2.60;;
20454;SDS011;10386;54.314;10.022;2022-07-29T08:08:18;4.95;;;2.08;;
20454;SDS011;10386;54.314;10.022;2022-07-29T08:10:45;9.77;;;2.90;;
20454;SDS011;10386;54.314;10.022;2022-07-29T08:13:30;8.13;;;2.33;;
20454;SDS011;10386;54.314;10.022;2022-07-29T08:15:58;2.22;;;1.80;;
20454;SDS011;10386;54.314;10.022;2022-07-29T08:18:38;6.53;;;1.83;;
20454;SDS011;10386;54.314;10.022;2022-07-29T08:21:06;4.82;;;2.13;;
20454;SDS011;10386;54.314;10.022;2022-07-29T08:23:33;4.00;;;2.25;;
20454;SDS011;10386;54.314;10.022;2022-07-29T08:26:18;4.30;;;2.30;;
20454;SDS011;10386;54.314;10.022;2022-07-29T08:28:47;5.80;;;2.10;;
20454;SDS011;10386;54.314;10.022;2022-07-29T08:31:16;6.20;;;2.10;;
20454;SDS011;10386;54.314;10.022;2022-07-29T08:33:44;4.13;;;2.25;;
20454;SDS011;10386;54.314;10.022;2022-07-29T08:36:11;3.83;;;1.83;;
20454;SDS011;10386;54.314;10.022;2022-07-29T08:38:39;6.05;;;2.08;;
20454;SDS011;10386;54.314;10.022;2022-07-29T08:41:06;3.92;;;2.20;;
20454;SDS011;10386;54.314;10.022;2022-07-29T08:43:32;10.27;;;2.20;;
20454;SDS011;10386;54.314;10.022;2022-07-29T08:46:03;5.28;;;2.17;;
20454;SDS011;10386;54.314;10.022;2022-07-29T08:48:30;3.15;;;2.08;;
20454;SDS011;10386;54.314;10.022;2022-07-29T08:50:57;5.97;;;2.20;;
20454;SDS011;10386;54.314;10.022;2022-07-29T08:53:25;5.13;;;2.25;;
20454;SDS011;10386;54.314;10.022;2022-07-29T08:55:54;4.55;;;2.03;;
20454;SDS011;10386;54.314;10.022;2022-07-29T08:58:21;5.60;;;2.60;;
20454;SDS011;10386;54.314;10.022;2022-07-29T09:00:52;6.13;;;2.03;;
20454;SDS011;10386;54.314;10.022;2022-07-29T09:03:23;6.35;;;2.40;;
20454;SDS011;10386;54.314;10.022;2022-07-29T09:05:51;6.32;;;2.17;;
20454;SDS011;10386;54.314;10.022;2022-07-29T09:08:18;4.22;;;2.20;;
20454;SDS011;10386;54.314;10.022;2022-07-29T09:10:46;4.65;;;2.30;;
20454;SDS011;10386;54.314;10.022;2022-07-29T09:13:14;5.07;;;2.10;;
20454;SDS011;10386;54.314;10.022;2022-07-29T09:15:41;7.63;;;2.10;;
20454;SDS011;10386;54.314;10.022;2022-07-29T09:18:07;3.67;;;1.90;;
20454;SDS011;10386;54.314;10.022;2022-07-29T09:20:54;4.85;;;2.20;;
20454;SDS011;10386;54.314;10.022;2022-07-29T09:26:33;5.53;;;2.00;;
20454;SDS011;10386;54.314;10.022;2022-07-29T09:29:08;7.80;;;2.42;;
20454;SDS011;10386;54.314;10.022;2022-07-29T09:31:41;7.00;;;2.20;;
20454;SDS011;10386;54.314;10.022;2022-07-29T09:34:13;7.65;;;2.08;;
20454;SDS011;10386;54.314;10.022;2022-07-29T09:36:42;4.15;;;2.22;;
20454;SDS011;10386;54.314;10.022;2022-07-29T09:39:10;6.03;;;2.40;;
20454;SDS011;10386;54.314;10.022;2022-07-29T09:44:15;6.40;;;2.30;;
20454;SDS011;10386;54.314;10.022;2022-07-29T09:49:53;4.28;;;2.10;;
20454;SDS011;10386;54.314;10.022;2022-07-29T09:52:28;4.78;;;2.25;;
20454;SDS011;10386;54.314;10.022;2022-07-29T09:55:14;3.80;;;2.08;;
20454;SDS011;10386;54.314;10.022;2022-07-29T09:57:45;4.53;;;2.22;;
20454;SDS011;10386;54.314;10.022;2022-07-29T10:00:17;7.93;;;2.13;;
20454;SDS011;10386;54.314;10.022;2022-07-29T10:02:46;7.00;;;2.00;;
20454;SDS011;10386;54.314;10.022;2022-07-29T10:07:52;3.40;;;2.25;;
20454;SDS011;10386;54.314;10.022;2022-07-29T10:10:27;4.20;;;1.90;;
20454;SDS011;10386;54.314;10.022;2022-07-29T10:12:56;4.55;;;2.17;;
20454;SDS011;10386;54.314;10.022;2022-07-29T10:15:33;3.88;;;1.90;;
20454;SDS011;10386;54.314;10.022;2022-07-29T10:18:10;4.50;;;2.00;;
20454;SDS011;10386;54.314;10.022;2022-07-29T10:20:38;5.40;;;2.05;;
20454;SDS011;10386;54.314;10.022;2022-07-29T10:23:06;5.72;;;2.00;;
20454;SDS011;10386;54.314;10.022;2022-07-29T10:25:32;2.33;;;1.73;;
20454;SDS011;10386;54.314;10.022;2022-07-29T10:27:59;6.22;;;2.15;;
20454;SDS011;10386;54.314;10.022;2022-07-29T10:30:26;3.00;;;1.83;;
20454;SDS011;10386;54.314;10.022;2022-07-29T10:32:56;4.28;;;1.80;;
20454;SDS011;10386;54.314;10.022;2022-07-29T10:38:53;10.25;;;2.35;;
20454;SDS011;10386;54.314;10.022;2022-07-29T10:44:24;6.00;;;2.08;;
20454;SDS011;10386;54.314;10.022;2022-07-29T10:46:53;4.78;;;2.55;;
20454;SDS011;10386;54.314;10.022;2022-07-29T10:49:21;4.97;;;2.20;;
20454;SDS011;10386;54.314;10.022;2022-07-29T10:59:47;4.93;;;2.35;;
20454;SDS011;10386;54.314;10.022;2022-07-29T11:05:11;6.45;;;1.80;;
20454;SDS011;10386;54.314;10.022;2022-07-29T11:08:17;5.10;;;1.90;;
20454;SDS011;10386;54.314;10.022;2022-07-29T11:10:50;6.18;;;2.22;;
20454;SDS011;10386;54.314;10.022;2022-07-29T11:13:44;5.00;;;1.80;;
20454;SDS011;10386;54.314;10.022;2022-07-29T11:16:19;4.03;;;1.98;;
20454;SDS011;10386;54.314;10.022;2022-07-29T11:21:45;3.08;;;1.92;;
20454;SDS011;10386;54.314;10.022;2022-07-29T11:24:27;5.40;;;1.90;;
20454;SDS011;10386;54.314;10.022;2022-07-29T11:27:10;5.68;;;1.80;;
20454;SDS011;10386;54.314;10.022;2022-07-29T11:29:49;4.80;;;1.92;;
20454;SDS011;10386;54.314;10.022;2022-07-29T11:32:17;5.50;;;1.95;;
20454;SDS011;10386;54.314;10.022;2022-07-29T11:35:16;4.32;;;1.83;;
20454;SDS011;10386;54.314;10.022;2022-07-29T11:46:45;4.80;;;1.85;;
20454;SDS011;10386;54.314;10.022;2022-07-29T11:49:13;4.20;;;1.50;;
20454;SDS011;10386;54.314;10.022;2022-07-29T11:51:57;5.00;;;1.52;;
20454;SDS011;10386;54.314;10.022;2022-07-29T11:54:48;2.80;;;1.45;;
20454;SDS011;10386;54.314;10.022;2022-07-29T11:57:25;3.50;;;1.77;;
20454;SDS011;10386;54.314;10.022;2022-07-29T12:00:36;8.25;;;2.15;;
20454;SDS011;10386;54.314;10.022;2022-07-29T12:03:05;6.75;;;2.10;;
20454;SDS011;10386;54.314;10.022;2022-07-29T12:05:35;6.10;;;1.70;;
20454;SDS011;10386;54.314;10.022;2022-07-29T12:10:49;4.60;;;1.80;;
20454;SDS011;10386;54.314;10.022;2022-07-29T12:13:18;3.75;;;2.03;;
20454;SDS011;10386;54.314;10.022;2022-07-29T12:15:54;4.60;;;2.17;;
20454;SDS011;10386;54.314;10.022;2022-07-29T12:18:25;2.42;;;1.63;;
20454;SDS011;10386;54.314;10.022;2022-07-29T12:20:56;8.68;;;2.10;;
20454;SDS011;10386;54.314;10.022;2022-07-29T12:23:30;5.65;;;2.30;;
20454;SDS011;10386;54.314;10.022;2022-07-29T12:26:03;5.35;;;1.80;;
20454;SDS011;10386;54.314;10.022;2022-07-29T12:28:36;9.50;;;2.65;;
20454;SDS011;10386;54.314;10.022;2022-07-29T12:31:05;10.40;;;2.20;;
20454;SDS011;10386;54.314;10.022;2022-07-29T12:33:33;5.30;;;2.00;;
20454;SDS011;10386;54.314;10.022;2022-07-29T12:36:02;5.05;;;1.90;;
20454;SDS011;10386;54.314;10.022;2022-07-29T12:38:39;2.05;;;1.80;;
20454;SDS011;10386;54.314;10.022;2022-07-29T12:41:07;7.10;;;1.90;;
20454;SDS011;10386;54.314;10.022;2022-07-29T12:43:34;4.32;;;2.30;;
20454;SDS011;10386;54.314;10.022;2022-07-29T12:46:22;3.65;;;2.08;;
20454;SDS011;10386;54.314;10.022;2022-07-29T12:48:51;7.85;;;2.20;;
20454;SDS011;10386;54.314;10.022;2022-07-29T12:51:29;7.82;;;2.28;;
20454;SDS011;10386;54.314;10.022;2022-07-29T12:54:02;3.20;;;1.75;;
20454;SDS011;10386;54.314;10.022;2022-07-29T12:56:30;3.42;;;1.98;;
20454;SDS011;10386;54.314;10.022;2022-07-29T12:59:21;5.10;;;1.95;;
20454;SDS011;10386;54.314;10.022;2022-07-29T13:01:49;8.70;;;2.28;;
20454;SDS011;10386;54.314;10.022;2022-07-29T13:04:25;6.15;;;2.00;;
20454;SDS011;10386;54.314;10.022;2022-07-29T13:07:00;7.40;;;2.17;;
20454;SDS011;10386;54.314;10.022;2022-07-29T13:09:48;2.92;;;1.90;;
20454;SDS011;10386;54.314;10.022;2022-07-29T13:12:15;6.63;;;2.08;;
20454;SDS011;10386;54.314;10.022;2022-07-29T13:14:43;5.75;;;1.92;;
20454;SDS011;10386;54.314;10.022;2022-07-29T13:17:12;10.75;;;2.10;;
20454;SDS011;10386;54.314;10.022;2022-07-29T13:22:10;7.43;;;2.33;;
20454;SDS011;10386;54.314;10.022;2022-07-29T13:24:49;6.97;;;1.95;;
20454;SDS011;10386;54.314;10.022;2022-07-29T13:27:16;2.92;;;1.70;;
20454;SDS011;10386;54.314;10.022;2022-07-29T13:29:44;3.60;;;2.03;;
20454;SDS011;10386;54.314;10.022;2022-07-29T13:32:11;3.58;;;2.30;;
20454;SDS011;10386;54.314;10.022;2022-07-29T13:34:39;3.42;;;2.30;;
20454;SDS011;10386;54.314;10.022;2022-07-29T13:37:07;4.78;;;2.08;;
20454;SDS011;10386;54.314;10.022;2022-07-29T13:39:33;7.60;;;2.50;;
20454;SDS011;10386;54.314;10.022;2022-07-29T13:42:00;7.03;;;2.00;;
20454;SDS011;10386;54.314;10.022;2022-07-29T13:44:27;6.07;;;2.08;;
20454;SDS011;10386;54.314;10.022;2022-07-29T13:46:54;2.85;;;1.83;;
20454;SDS011;10386;54.314;10.022;2022-07-29T13:49:22;7.00;;;2.20;;
20454;SDS011;10386;54.314;10.022;2022-07-29T13:51:49;6.53;;;2.05;;
20454;SDS011;10386;54.314;10.022;2022-07-29T13:54:16;3.97;;;2.10;;
20454;SDS011;10386;54.314;10.022;2022-07-29T13:56:43;5.05;;;1.92;;
20454;SDS011;10386;54.314;10.022;2022-07-29T13:59:11;4.22;;;2.10;;
20454;SDS011;10386;54.314;10.022;2022-07-29T14:01:38;5.53;;;2.20;;
20454;SDS011;10386;54.314;10.022;2022-07-29T14:04:08;7.60;;;2.15;;
20454;SDS011;10386;54.314;10.022;2022-07-29T14:06:37;2.25;;;1.80;;
20454;SDS011;10386;54.314;10.022;2022-07-29T14:09:05;7.95;;;1.90;;
20454;SDS011;10386;54.314;10.022;2022-07-29T14:11:32;3.95;;;1.80;;
20454;SDS011;10386;54.314;10.022;2022-07-29T14:13:59;4.70;;;2.10;;
20454;SDS011;10386;54.314;10.022;2022-07-29T14:16:26;3.45;;;1.95;;
20454;SDS011;10386;54.314;10.022;2022-07-29T14:18:53;3.90;;;2.38;;
20454;SDS011;10386;54.314;10.022;2022-07-29T14:21:20;3.05;;;2.15;;
20454;SDS011;10386;54.314;10.022;2022-07-29T14:23:46;3.67;;;2.08;;
20454;SDS011;10386;54.314;10.022;2022-07-29T14:26:14;4.40;;;1.98;;
20454;SDS011;10386;54.314;10.022;2022-07-29T14:28:49;7.68;;;2.17;;
20454;SDS011;10386;54.314;10.022;2022-07-29T14:31:16;3.05;;;1.95;;
20454;SDS011;10386;54.314;10.022;2022-07-29T14:33:43;6.00;;;2.10;;
20454;SDS011;10386;54.314;10.022;2022-07-29T14:36:14;3.28;;;1.80;;
20454;SDS011;10386;54.314;10.022;2022-07-29T14:38:41;3.50;;;2.00;;
20454;SDS011;10386;54.314;10.022;2022-07-29T14:41:08;3.03;;;1.75;;
20454;SDS011;10386;54.314;10.022;2022-07-29T14:43:35;2.83;;;1.98;;
20454;SDS011;10386;54.314;10.022;2022-07-29T14:46:02;3.90;;;1.80;;
20454;SDS011;10386;54.314;10.022;2022-07-29T14:48:33;7.50;;;2.30;;
20454;SDS011;10386;54.314;10.022;2022-07-29T14:51:01;4.28;;;1.98;;
20454;SDS011;10386;54.314;10.022;2022-07-29T14:53:30;5.85;;;2.30;;
20454;SDS011;10386;54.314;10.022;2022-07-29T14:55:57;4.93;;;2.05;;
20454;SDS011;10386;54.314;10.022;2022-07-29T14:58:44;5.53;;;1.80;;
20454;SDS011;10386;54.314;10.022;2022-07-29T15:01:17;3.58;;;1.85;;
20454;SDS011;10386;54.314;10.022;2022-07-29T15:03:44;5.10;;;2.30;;
20454;SDS011;10386;54.314;10.022;2022-07-29T15:06:12;6.75;;;1.75;;
20454;SDS011;10386;54.314;10.022;2022-07-29T15:08:38;3.45;;;2.08;;
20454;SDS011;10386;54.314;10.022;2022-07-29T15:11:05;3.00;;;2.47;;
20454;SDS011;10386;54.314;10.022;2022-07-29T15:13:32;3.17;;;1.90;;
20454;SDS011;10386;54.314;10.022;2022-07-29T15:16:00;3.17;;;2.17;;
20454;SDS011;10386;54.314;10.022;2022-07-29T15:18:27;4.57;;;2.45;;
20454;SDS011;10386;54.314;10.022;2022-07-29T15:20:54;9.05;;;2.30;;
20454;SDS011;10386;54.314;10.022;2022-07-29T15:23:20;6.45;;;1.90;;
20454;SDS011;10386;54.314;10.022;2022-07-29T15:25:47;4.85;;;1.98;;
20454;SDS011;10386;54.314;10.022;2022-07-29T15:28:14;3.13;;;2.10;;
20454;SDS011;10386;54.314;10.022;2022-07-29T15:30:41;6.07;;;2.30;;
20454;SDS011;10386;54.314;10.022;2022-07-29T15:33:08;4.68;;;2.20;;
20454;SDS011;10386;54.314;10.022;2022-07-29T15:35:36;3.35;;;2.20;;
20454;SDS011;10386;54.314;10.022;2022-07-29T15:38:06;11.00;;;2.40;;
20454;SDS011;10386;54.314;10.022;2022-07-29T15:40:33;6.95;;;2.20;;
20454;SDS011;10386;54.314;10.022;2022-07-29T15:43:03;5.15;;;2.40;;
20454;SDS011;10386;54.314;10.022;2022-07-29T15:45:36;5.45;;;2.28;;
20454;SDS011;10386;54.314;10.022;2022-07-29T15:48:06;7.32;;;2.35;;
20454;SDS011;10386;54.314;10.022;2022-07-29T15:50:34;3.15;;;1.90;;